Weather at Decatur County Industrial Air Park

Public forecast

Using degrees Fahrenheit for public forecast. Weather courtesy of forecast.io.

Current aviation weather report (METAR) for Decatur County Industrial Air Park

Retrieved 2020/11/23 15:35 UTC (14 minutes ago):

KBGE 231535Z AUTO 35010KT 10SM BKN015 17/12 A3022 RMK AO2 T01680121

Closest aviation forecast (TAF) to Decatur County Industrial Air Park

Closest forecast is Tallahassee Regional Airport, 37.6 nm (69.6 km) SSE. Retrieved 2020/11/23 12:22 UTC (3 hours ago):

TAF KTLH 231120Z 2312/2412 35007KT P6SM FEW250 FM240000 36003KT P6SM SKC